sensor_id;sensor_type;location;lat;lon;timestamp;P1;durP1;ratioP1;P2;durP2;ratioP2
77597;SDS011;66756;42.774;23.354;2023-04-16T00:00:27;7.28;;;2.92;;
77597;SDS011;66756;42.774;23.354;2023-04-16T00:02:53;8.70;;;4.03;;
77597;SDS011;66756;42.774;23.354;2023-04-16T00:05:19;6.55;;;3.65;;
77597;SDS011;66756;42.774;23.354;2023-04-16T00:07:45;7.75;;;3.75;;
77597;SDS011;66756;42.774;23.354;2023-04-16T00:10:11;8.20;;;2.72;;
77597;SDS011;66756;42.774;23.354;2023-04-16T00:12:37;5.85;;;3.72;;
77597;SDS011;66756;42.774;23.354;2023-04-16T00:15:03;6.13;;;3.25;;
77597;SDS011;66756;42.774;23.354;2023-04-16T00:17:29;6.32;;;3.20;;
77597;SDS011;66756;42.774;23.354;2023-04-16T00:19:55;6.43;;;3.83;;
77597;SDS011;66756;42.774;23.354;2023-04-16T00:22:21;6.07;;;3.55;;
77597;SDS011;66756;42.774;23.354;2023-04-16T00:24:47;7.25;;;3.03;;
77597;SDS011;66756;42.774;23.354;2023-04-16T00:27:13;8.93;;;3.35;;
77597;SDS011;66756;42.774;23.354;2023-04-16T00:29:40;8.30;;;5.43;;
77597;SDS011;66756;42.774;23.354;2023-04-16T00:32:06;6.65;;;3.17;;
77597;SDS011;66756;42.774;23.354;2023-04-16T00:34:32;7.75;;;3.22;;
77597;SDS011;66756;42.774;23.354;2023-04-16T00:36:58;6.97;;;2.97;;
77597;SDS011;66756;42.774;23.354;2023-04-16T00:39:24;6.80;;;3.58;;
77597;SDS011;66756;42.774;23.354;2023-04-16T00:41:50;6.68;;;2.80;;
77597;SDS011;66756;42.774;23.354;2023-04-16T00:44:16;7.03;;;3.33;;
77597;SDS011;66756;42.774;23.354;2023-04-16T00:46:42;6.10;;;3.58;;
77597;SDS011;66756;42.774;23.354;2023-04-16T00:49:08;5.40;;;3.45;;
77597;SDS011;66756;42.774;23.354;2023-04-16T00:51:34;6.70;;;4.05;;
77597;SDS011;66756;42.774;23.354;2023-04-16T00:54:00;6.50;;;2.38;;
77597;SDS011;66756;42.774;23.354;2023-04-16T00:56:26;5.70;;;2.95;;
77597;SDS011;66756;42.774;23.354;2023-04-16T00:58:56;5.03;;;2.53;;
77597;SDS011;66756;42.774;23.354;2023-04-16T01:01:22;5.32;;;2.83;;
77597;SDS011;66756;42.774;23.354;2023-04-16T01:03:48;4.10;;;1.80;;
77597;SDS011;66756;42.774;23.354;2023-04-16T01:06:17;6.03;;;3.47;;
77597;SDS011;66756;42.774;23.354;2023-04-16T01:08:44;7.95;;;3.45;;
77597;SDS011;66756;42.774;23.354;2023-04-16T01:11:11;5.03;;;2.25;;
77597;SDS011;66756;42.774;23.354;2023-04-16T01:13:37;6.22;;;3.60;;
77597;SDS011;66756;42.774;23.354;2023-04-16T01:16:04;8.55;;;2.72;;
77597;SDS011;66756;42.774;23.354;2023-04-16T01:18:31;8.35;;;3.53;;
77597;SDS011;66756;42.774;23.354;2023-04-16T01:20:58;9.40;;;5.07;;
77597;SDS011;66756;42.774;23.354;2023-04-16T01:23:24;8.77;;;5.30;;
77597;SDS011;66756;42.774;23.354;2023-04-16T01:25:50;8.57;;;4.35;;
77597;SDS011;66756;42.774;23.354;2023-04-16T01:28:16;9.00;;;4.13;;
77597;SDS011;66756;42.774;23.354;2023-04-16T01:30:42;8.45;;;4.95;;
77597;SDS011;66756;42.774;23.354;2023-04-16T01:33:11;8.20;;;3.92;;
77597;SDS011;66756;42.774;23.354;2023-04-16T01:35:38;7.60;;;5.57;;
77597;SDS011;66756;42.774;23.354;2023-04-16T01:38:05;7.95;;;3.85;;
77597;SDS011;66756;42.774;23.354;2023-04-16T01:40:32;10.60;;;5.38;;
77597;SDS011;66756;42.774;23.354;2023-04-16T01:42:58;7.47;;;4.72;;
77597;SDS011;66756;42.774;23.354;2023-04-16T01:45:24;7.68;;;3.60;;
77597;SDS011;66756;42.774;23.354;2023-04-16T01:47:50;5.63;;;2.88;;
77597;SDS011;66756;42.774;23.354;2023-04-16T01:50:17;4.80;;;2.97;;
77597;SDS011;66756;42.774;23.354;2023-04-16T01:52:43;5.90;;;3.00;;
77597;SDS011;66756;42.774;23.354;2023-04-16T01:55:09;4.63;;;3.20;;
77597;SDS011;66756;42.774;23.354;2023-04-16T01:57:35;4.50;;;1.70;;
77597;SDS011;66756;42.774;23.354;2023-04-16T02:00:02;6.75;;;3.25;;
77597;SDS011;66756;42.774;23.354;2023-04-16T02:02:28;5.38;;;1.55;;
77597;SDS011;66756;42.774;23.354;2023-04-16T02:04:55;5.20;;;1.67;;
77597;SDS011;66756;42.774;23.354;2023-04-16T02:07:21;4.43;;;2.00;;
77597;SDS011;66756;42.774;23.354;2023-04-16T02:09:47;4.75;;;1.40;;
77597;SDS011;66756;42.774;23.354;2023-04-16T02:12:14;5.13;;;2.65;;
77597;SDS011;66756;42.774;23.354;2023-04-16T02:14:41;5.75;;;2.08;;
77597;SDS011;66756;42.774;23.354;2023-04-16T02:17:07;4.82;;;2.20;;
77597;SDS011;66756;42.774;23.354;2023-04-16T02:19:33;5.38;;;3.08;;
77597;SDS011;66756;42.774;23.354;2023-04-16T02:22:00;5.20;;;1.83;;
77597;SDS011;66756;42.774;23.354;2023-04-16T02:24:26;4.20;;;3.45;;
77597;SDS011;66756;42.774;23.354;2023-04-16T02:26:52;5.22;;;2.45;;
77597;SDS011;66756;42.774;23.354;2023-04-16T02:29:18;4.75;;;3.03;;
77597;SDS011;66756;42.774;23.354;2023-04-16T02:31:46;4.47;;;1.77;;
77597;SDS011;66756;42.774;23.354;2023-04-16T02:34:12;4.18;;;2.40;;
77597;SDS011;66756;42.774;23.354;2023-04-16T02:36:39;6.30;;;2.35;;
77597;SDS011;66756;42.774;23.354;2023-04-16T02:39:05;4.30;;;2.20;;
77597;SDS011;66756;42.774;23.354;2023-04-16T02:41:31;4.18;;;1.90;;
77597;SDS011;66756;42.774;23.354;2023-04-16T02:43:57;5.22;;;3.15;;
77597;SDS011;66756;42.774;23.354;2023-04-16T02:46:23;4.43;;;1.70;;
77597;SDS011;66756;42.774;23.354;2023-04-16T02:48:49;6.55;;;2.35;;
77597;SDS011;66756;42.774;23.354;2023-04-16T02:51:15;4.35;;;1.35;;
77597;SDS011;66756;42.774;23.354;2023-04-16T02:53:41;3.15;;;2.45;;
77597;SDS011;66756;42.774;23.354;2023-04-16T02:56:10;5.47;;;2.92;;
77597;SDS011;66756;42.774;23.354;2023-04-16T02:58:36;5.13;;;1.30;;
77597;SDS011;66756;42.774;23.354;2023-04-16T03:01:02;4.50;;;1.52;;
77597;SDS011;66756;42.774;23.354;2023-04-16T03:03:28;5.05;;;1.80;;
77597;SDS011;66756;42.774;23.354;2023-04-16T03:05:54;4.53;;;1.73;;
77597;SDS011;66756;42.774;23.354;2023-04-16T03:08:20;4.65;;;2.80;;
77597;SDS011;66756;42.774;23.354;2023-04-16T03:10:46;5.20;;;1.55;;
77597;SDS011;66756;42.774;23.354;2023-04-16T03:13:12;6.85;;;3.40;;
77597;SDS011;66756;42.774;23.354;2023-04-16T03:15:38;5.97;;;1.90;;
77597;SDS011;66756;42.774;23.354;2023-04-16T03:18:04;6.70;;;1.92;;
77597;SDS011;66756;42.774;23.354;2023-04-16T03:20:30;5.28;;;3.22;;
77597;SDS011;66756;42.774;23.354;2023-04-16T03:22:56;6.90;;;2.05;;
77597;SDS011;66756;42.774;23.354;2023-04-16T03:25:22;5.00;;;3.45;;
77597;SDS011;66756;42.774;23.354;2023-04-16T03:27:48;4.28;;;2.00;;
77597;SDS011;66756;42.774;23.354;2023-04-16T03:30:14;3.83;;;2.78;;
77597;SDS011;66756;42.774;23.354;2023-04-16T03:32:41;6.10;;;2.50;;
77597;SDS011;66756;42.774;23.354;2023-04-16T03:35:07;7.13;;;2.35;;
77597;SDS011;66756;42.774;23.354;2023-04-16T03:37:33;5.55;;;2.85;;
77597;SDS011;66756;42.774;23.354;2023-04-16T03:40:00;5.43;;;1.80;;
77597;SDS011;66756;42.774;23.354;2023-04-16T03:42:26;7.30;;;1.90;;
77597;SDS011;66756;42.774;23.354;2023-04-16T03:44:52;5.13;;;1.90;;
77597;SDS011;66756;42.774;23.354;2023-04-16T03:47:21;4.13;;;2.25;;
77597;SDS011;66756;42.774;23.354;2023-04-16T03:49:47;5.88;;;1.95;;
77597;SDS011;66756;42.774;23.354;2023-04-16T03:52:13;5.13;;;2.83;;
77597;SDS011;66756;42.774;23.354;2023-04-16T03:54:39;4.38;;;2.83;;
77597;SDS011;66756;42.774;23.354;2023-04-16T03:57:05;5.07;;;1.77;;
77597;SDS011;66756;42.774;23.354;2023-04-16T03:59:31;5.88;;;2.45;;
77597;SDS011;66756;42.774;23.354;2023-04-16T04:01:57;5.53;;;2.03;;
77597;SDS011;66756;42.774;23.354;2023-04-16T04:04:23;4.10;;;2.53;;
77597;SDS011;66756;42.774;23.354;2023-04-16T04:06:49;6.10;;;3.15;;
77597;SDS011;66756;42.774;23.354;2023-04-16T04:09:15;5.85;;;1.77;;
77597;SDS011;66756;42.774;23.354;2023-04-16T04:11:41;6.53;;;1.80;;
77597;SDS011;66756;42.774;23.354;2023-04-16T04:14:07;7.03;;;1.85;;
77597;SDS011;66756;42.774;23.354;2023-04-16T04:16:33;4.10;;;2.08;;
77597;SDS011;66756;42.774;23.354;2023-04-16T04:19:00;5.07;;;2.22;;
77597;SDS011;66756;42.774;23.354;2023-04-16T04:21:26;7.25;;;1.80;;
77597;SDS011;66756;42.774;23.354;2023-04-16T04:23:52;3.95;;;2.10;;
77597;SDS011;66756;42.774;23.354;2023-04-16T04:26:18;7.18;;;2.35;;
77597;SDS011;66756;42.774;23.354;2023-04-16T04:28:45;4.78;;;1.92;;
77597;SDS011;66756;42.774;23.354;2023-04-16T04:31:11;3.38;;;2.40;;
77597;SDS011;66756;42.774;23.354;2023-04-16T04:33:37;4.47;;;1.70;;
77597;SDS011;66756;42.774;23.354;2023-04-16T04:36:03;4.63;;;2.30;;
77597;SDS011;66756;42.774;23.354;2023-04-16T04:38:29;4.55;;;1.67;;
77597;SDS011;66756;42.774;23.354;2023-04-16T04:40:55;6.35;;;1.98;;
77597;SDS011;66756;42.774;23.354;2023-04-16T04:43:21;5.32;;;1.63;;
77597;SDS011;66756;42.774;23.354;2023-04-16T04:45:48;4.47;;;1.63;;
77597;SDS011;66756;42.774;23.354;2023-04-16T04:48:14;5.72;;;1.63;;
77597;SDS011;66756;42.774;23.354;2023-04-16T04:50:40;4.75;;;1.67;;
77597;SDS011;66756;42.774;23.354;2023-04-16T04:53:07;6.13;;;1.73;;
77597;SDS011;66756;42.774;23.354;2023-04-16T04:55:36;3.17;;;1.15;;
77597;SDS011;66756;42.774;23.354;2023-04-16T04:58:03;3.80;;;2.10;;
77597;SDS011;66756;42.774;23.354;2023-04-16T05:00:30;6.20;;;1.73;;
77597;SDS011;66756;42.774;23.354;2023-04-16T05:02:56;4.43;;;3.10;;
77597;SDS011;66756;42.774;23.354;2023-04-16T05:05:22;3.58;;;2.35;;
77597;SDS011;66756;42.774;23.354;2023-04-16T05:07:48;3.55;;;1.30;;
77597;SDS011;66756;42.774;23.354;2023-04-16T05:10:14;3.58;;;2.33;;
77597;SDS011;66756;42.774;23.354;2023-04-16T05:12:40;5.03;;;2.28;;
77597;SDS011;66756;42.774;23.354;2023-04-16T05:15:07;4.13;;;1.35;;
77597;SDS011;66756;42.774;23.354;2023-04-16T05:17:33;4.82;;;1.83;;
77597;SDS011;66756;42.774;23.354;2023-04-16T05:19:59;5.50;;;1.90;;
77597;SDS011;66756;42.774;23.354;2023-04-16T05:22:25;4.07;;;1.92;;
77597;SDS011;66756;42.774;23.354;2023-04-16T05:24:51;5.75;;;2.20;;
77597;SDS011;66756;42.774;23.354;2023-04-16T05:27:17;4.40;;;2.35;;
77597;SDS011;66756;42.774;23.354;2023-04-16T05:29:43;5.32;;;3.33;;
77597;SDS011;66756;42.774;23.354;2023-04-16T05:32:09;4.63;;;2.45;;
77597;SDS011;66756;42.774;23.354;2023-04-16T05:34:35;5.97;;;3.10;;
77597;SDS011;66756;42.774;23.354;2023-04-16T05:37:01;6.60;;;3.40;;
77597;SDS011;66756;42.774;23.354;2023-04-16T05:39:27;6.45;;;3.47;;
77597;SDS011;66756;42.774;23.354;2023-04-16T05:41:53;6.68;;;2.50;;
77597;SDS011;66756;42.774;23.354;2023-04-16T05:44:19;5.35;;;3.88;;
77597;SDS011;66756;42.774;23.354;2023-04-16T05:46:45;5.15;;;2.38;;
77597;SDS011;66756;42.774;23.354;2023-04-16T05:49:11;9.70;;;3.70;;
77597;SDS011;66756;42.774;23.354;2023-04-16T05:51:37;5.13;;;2.92;;
77597;SDS011;66756;42.774;23.354;2023-04-16T05:54:03;8.48;;;2.72;;
77597;SDS011;66756;42.774;23.354;2023-04-16T05:56:29;7.88;;;3.13;;
77597;SDS011;66756;42.774;23.354;2023-04-16T05:58:55;5.55;;;3.58;;
77597;SDS011;66756;42.774;23.354;2023-04-16T06:01:22;8.32;;;4.68;;
77597;SDS011;66756;42.774;23.354;2023-04-16T06:03:48;6.55;;;3.53;;
77597;SDS011;66756;42.774;23.354;2023-04-16T06:06:14;7.53;;;3.17;;
77597;SDS011;66756;42.774;23.354;2023-04-16T06:08:40;5.70;;;2.83;;
77597;SDS011;66756;42.774;23.354;2023-04-16T06:11:06;7.25;;;3.95;;
77597;SDS011;66756;42.774;23.354;2023-04-16T06:13:32;6.22;;;3.45;;
77597;SDS011;66756;42.774;23.354;2023-04-16T06:15:58;7.90;;;4.10;;
77597;SDS011;66756;42.774;23.354;2023-04-16T06:18:24;7.18;;;3.05;;
77597;SDS011;66756;42.774;23.354;2023-04-16T06:20:50;8.43;;;3.28;;
77597;SDS011;66756;42.774;23.354;2023-04-16T06:23:16;10.45;;;4.10;;
77597;SDS011;66756;42.774;23.354;2023-04-16T06:25:42;5.45;;;2.72;;
77597;SDS011;66756;42.774;23.354;2023-04-16T06:28:08;5.82;;;3.90;;
77597;SDS011;66756;42.774;23.354;2023-04-16T06:30:34;5.85;;;3.45;;
77597;SDS011;66756;42.774;23.354;2023-04-16T06:33:00;5.53;;;2.28;;
77597;SDS011;66756;42.774;23.354;2023-04-16T06:35:26;7.35;;;4.18;;
77597;SDS011;66756;42.774;23.354;2023-04-16T06:37:52;4.45;;;3.25;;
77597;SDS011;66756;42.774;23.354;2023-04-16T06:40:18;6.03;;;2.65;;
77597;SDS011;66756;42.774;23.354;2023-04-16T06:42:44;4.78;;;3.47;;
77597;SDS011;66756;42.774;23.354;2023-04-16T06:45:11;4.90;;;1.85;;
77597;SDS011;66756;42.774;23.354;2023-04-16T06:47:37;3.60;;;2.15;;
77597;SDS011;66756;42.774;23.354;2023-04-16T06:50:03;3.38;;;2.55;;
77597;SDS011;66756;42.774;23.354;2023-04-16T06:52:29;5.13;;;2.50;;
77597;SDS011;66756;42.774;23.354;2023-04-16T06:54:55;4.72;;;1.80;;
77597;SDS011;66756;42.774;23.354;2023-04-16T06:57:21;3.90;;;1.27;;
77597;SDS011;66756;42.774;23.354;2023-04-16T06:59:47;5.57;;;1.67;;
77597;SDS011;66756;42.774;23.354;2023-04-16T07:02:13;4.72;;;2.55;;
77597;SDS011;66756;42.774;23.354;2023-04-16T07:04:39;3.55;;;2.35;;
77597;SDS011;66756;42.774;23.354;2023-04-16T07:07:06;5.30;;;2.97;;
77597;SDS011;66756;42.774;23.354;2023-04-16T07:09:32;4.85;;;1.85;;
77597;SDS011;66756;42.774;23.354;2023-04-16T07:11:58;4.72;;;2.58;;
77597;SDS011;66756;42.774;23.354;2023-04-16T07:14:24;3.88;;;1.90;;
77597;SDS011;66756;42.774;23.354;2023-04-16T07:16:50;4.53;;;2.42;;
77597;SDS011;66756;42.774;23.354;2023-04-16T07:19:16;7.50;;;2.03;;
77597;SDS011;66756;42.774;23.354;2023-04-16T07:21:42;6.82;;;1.90;;
77597;SDS011;66756;42.774;23.354;2023-04-16T07:24:09;5.50;;;2.65;;
77597;SDS011;66756;42.774;23.354;2023-04-16T07:26:37;4.05;;;1.67;;
77597;SDS011;66756;42.774;23.354;2023-04-16T07:29:03;5.45;;;2.53;;
77597;SDS011;66756;42.774;23.354;2023-04-16T07:31:29;3.67;;;1.55;;
77597;SDS011;66756;42.774;23.354;2023-04-16T07:33:56;5.30;;;1.58;;
77597;SDS011;66756;42.774;23.354;2023-04-16T07:36:22;5.32;;;1.50;;
77597;SDS011;66756;42.774;23.354;2023-04-16T07:38:51;5.18;;;1.80;;
77597;SDS011;66756;42.774;23.354;2023-04-16T07:41:17;4.07;;;2.22;;
77597;SDS011;66756;42.774;23.354;2023-04-16T07:43:43;4.28;;;1.30;;
77597;SDS011;66756;42.774;23.354;2023-04-16T07:46:09;4.25;;;1.02;;
77597;SDS011;66756;42.774;23.354;2023-04-16T07:48:35;3.70;;;1.38;;
77597;SDS011;66756;42.774;23.354;2023-04-16T07:51:01;5.03;;;2.83;;
77597;SDS011;66756;42.774;23.354;2023-04-16T07:53:27;9.98;;;2.67;;
77597;SDS011;66756;42.774;23.354;2023-04-16T07:55:53;2.70;;;1.23;;
77597;SDS011;66756;42.774;23.354;2023-04-16T07:58:20;3.28;;;2.05;;
77597;SDS011;66756;42.774;23.354;2023-04-16T08:00:46;3.72;;;0.82;;
77597;SDS011;66756;42.774;23.354;2023-04-16T08:03:12;4.47;;;1.00;;
77597;SDS011;66756;42.774;23.354;2023-04-16T08:05:39;3.70;;;1.42;;
77597;SDS011;66756;42.774;23.354;2023-04-16T08:08:05;2.83;;;1.52;;
77597;SDS011;66756;42.774;23.354;2023-04-16T08:10:32;4.28;;;1.77;;
77597;SDS011;66756;42.774;23.354;2023-04-16T08:12:59;3.13;;;1.35;;
77597;SDS011;66756;42.774;23.354;2023-04-16T08:15:25;3.33;;;0.80;;
77597;SDS011;66756;42.774;23.354;2023-04-16T08:17:51;2.67;;;0.70;;
77597;SDS011;66756;42.774;23.354;2023-04-16T08:20:17;2.50;;;1.17;;
77597;SDS011;66756;42.774;23.354;2023-04-16T08:22:44;3.72;;;1.10;;
77597;SDS011;66756;42.774;23.354;2023-04-16T08:25:12;3.53;;;0.82;;
77597;SDS011;66756;42.774;23.354;2023-04-16T08:27:38;5.15;;;1.13;;
77597;SDS011;66756;42.774;23.354;2023-04-16T08:30:04;2.83;;;0.75;;
77597;SDS011;66756;42.774;23.354;2023-04-16T08:32:30;4.22;;;0.50;;
77597;SDS011;66756;42.774;23.354;2023-04-16T08:34:56;1.67;;;0.60;;
77597;SDS011;66756;42.774;23.354;2023-04-16T08:37:22;2.67;;;1.67;;
77597;SDS011;66756;42.774;23.354;2023-04-16T08:39:48;6.68;;;1.65;;
77597;SDS011;66756;42.774;23.354;2023-04-16T08:42:20;4.35;;;0.63;;
77597;SDS011;66756;42.774;23.354;2023-04-16T08:44:48;2.40;;;0.80;;
77597;SDS011;66756;42.774;23.354;2023-04-16T08:47:17;3.53;;;1.10;;
77597;SDS011;66756;42.774;23.354;2023-04-16T08:49:44;3.88;;;1.30;;
77597;SDS011;66756;42.774;23.354;2023-04-16T08:52:14;3.72;;;1.65;;
77597;SDS011;66756;42.774;23.354;2023-04-16T08:54:47;6.10;;;2.13;;
77597;SDS011;66756;42.774;23.354;2023-04-16T08:57:13;3.83;;;0.85;;
77597;SDS011;66756;42.774;23.354;2023-04-16T08:59:46;3.22;;;0.75;;
77597;SDS011;66756;42.774;23.354;2023-04-16T09:02:13;3.78;;;1.50;;
77597;SDS011;66756;42.774;23.354;2023-04-16T09:04:40;4.18;;;0.70;;
77597;SDS011;66756;42.774;23.354;2023-04-16T09:07:09;1.75;;;0.50;;
77597;SDS011;66756;42.774;23.354;2023-04-16T09:09:37;5.75;;;2.15;;
77597;SDS011;66756;42.774;23.354;2023-04-16T09:12:03;2.20;;;1.23;;
77597;SDS011;66756;42.774;23.354;2023-04-16T09:14:32;2.38;;;1.40;;
77597;SDS011;66756;42.774;23.354;2023-04-16T09:17:04;3.95;;;1.52;;
77597;SDS011;66756;42.774;23.354;2023-04-16T09:19:34;3.38;;;0.80;;
77597;SDS011;66756;42.774;23.354;2023-04-16T09:22:05;3.47;;;1.67;;
77597;SDS011;66756;42.774;23.354;2023-04-16T09:24:32;5.13;;;2.53;;
77597;SDS011;66756;42.774;23.354;2023-04-16T09:26:59;4.55;;;1.13;;
77597;SDS011;66756;42.774;23.354;2023-04-16T09:29:31;2.80;;;0.82;;
77597;SDS011;66756;42.774;23.354;2023-04-16T09:32:02;3.25;;;1.92;;
77597;SDS011;66756;42.774;23.354;2023-04-16T09:34:29;1.73;;;0.60;;
77597;SDS011;66756;42.774;23.354;2023-04-16T09:36:57;5.50;;;2.72;;
77597;SDS011;66756;42.774;23.354;2023-04-16T09:39:38;4.15;;;1.00;;
77597;SDS011;66756;42.774;23.354;2023-04-16T09:42:04;3.70;;;1.23;;
77597;SDS011;66756;42.774;23.354;2023-04-16T09:44:34;2.33;;;1.00;;
77597;SDS011;66756;42.774;23.354;2023-04-16T09:47:04;2.72;;;1.52;;
77597;SDS011;66756;42.774;23.354;2023-04-16T09:49:32;3.03;;;1.20;;
77597;SDS011;66756;42.774;23.354;2023-04-16T09:51:59;3.72;;;1.15;;
77597;SDS011;66756;42.774;23.354;2023-04-16T09:54:26;6.05;;;2.55;;
77597;SDS011;66756;42.774;23.354;2023-04-16T09:56:54;2.22;;;1.17;;
77597;SDS011;66756;42.774;23.354;2023-04-16T09:59:21;3.85;;;0.90;;
77597;SDS011;66756;42.774;23.354;2023-04-16T10:01:47;4.07;;;1.20;;
77597;SDS011;66756;42.774;23.354;2023-04-16T10:04:14;3.05;;;1.20;;
77597;SDS011;66756;42.774;23.354;2023-04-16T10:06:40;4.72;;;0.65;;
77597;SDS011;66756;42.774;23.354;2023-04-16T10:09:07;2.85;;;0.55;;
77597;SDS011;66756;42.774;23.354;2023-04-16T10:11:33;4.05;;;1.00;;
77597;SDS011;66756;42.774;23.354;2023-04-16T10:13:59;5.30;;;2.05;;
77597;SDS011;66756;42.774;23.354;2023-04-16T10:16:26;3.92;;;0.65;;
77597;SDS011;66756;42.774;23.354;2023-04-16T10:18:52;3.95;;;0.75;;
77597;SDS011;66756;42.774;23.354;2023-04-16T10:21:18;2.33;;;1.02;;
77597;SDS011;66756;42.774;23.354;2023-04-16T10:23:45;5.68;;;0.75;;
77597;SDS011;66756;42.774;23.354;2023-04-16T10:26:13;4.93;;;0.73;;
77597;SDS011;66756;42.774;23.354;2023-04-16T10:28:40;3.78;;;1.50;;
77597;SDS011;66756;42.774;23.354;2023-04-16T10:31:07;3.17;;;0.52;;
77597;SDS011;66756;42.774;23.354;2023-04-16T10:33:34;1.98;;;1.13;;
77597;SDS011;66756;42.774;23.354;2023-04-16T10:36:08;3.28;;;1.40;;
77597;SDS011;66756;42.774;23.354;2023-04-16T10:38:36;2.15;;;0.98;;
77597;SDS011;66756;42.774;23.354;2023-04-16T10:41:02;1.88;;;0.47;;
77597;SDS011;66756;42.774;23.354;2023-04-16T10:43:29;4.30;;;0.70;;
77597;SDS011;66756;42.774;23.354;2023-04-16T10:45:55;4.43;;;0.60;;
77597;SDS011;66756;42.774;23.354;2023-04-16T10:48:24;2.35;;;0.70;;
77597;SDS011;66756;42.774;23.354;2023-04-16T10:50:57;2.40;;;0.65;;
77597;SDS011;66756;42.774;23.354;2023-04-16T10:53:24;3.33;;;1.10;;
77597;SDS011;66756;42.774;23.354;2023-04-16T10:55:57;3.08;;;1.48;;
77597;SDS011;66756;42.774;23.354;2023-04-16T10:58:30;4.35;;;1.15;;
77597;SDS011;66756;42.774;23.354;2023-04-16T11:01:05;1.95;;;1.08;;
77597;SDS011;66756;42.774;23.354;2023-04-16T11:03:31;2.25;;;0.60;;
77597;SDS011;66756;42.774;23.354;2023-04-16T11:06:13;3.72;;;1.65;;
77597;SDS011;66756;42.774;23.354;2023-04-16T11:08:41;3.28;;;1.20;;
77597;SDS011;66756;42.774;23.354;2023-04-16T11:11:08;3.55;;;1.13;;
77597;SDS011;66756;42.774;23.354;2023-04-16T11:13:35;4.20;;;1.40;;
77597;SDS011;66756;42.774;23.354;2023-04-16T11:16:01;3.63;;;0.57;;
77597;SDS011;66756;42.774;23.354;2023-04-16T11:18:27;2.00;;;0.70;;
77597;SDS011;66756;42.774;23.354;2023-04-16T11:20:53;2.13;;;0.75;;
77597;SDS011;66756;42.774;23.354;2023-04-16T11:23:20;3.38;;;1.30;;
77597;SDS011;66756;42.774;23.354;2023-04-16T11:25:46;3.22;;;0.80;;
77597;SDS011;66756;42.774;23.354;2023-04-16T11:28:12;2.75;;;0.75;;
77597;SDS011;66756;42.774;23.354;2023-04-16T11:30:38;3.17;;;0.90;;
77597;SDS011;66756;42.774;23.354;2023-04-16T11:33:08;3.42;;;0.88;;
77597;SDS011;66756;42.774;23.354;2023-04-16T11:35:38;2.00;;;0.55;;
77597;SDS011;66756;42.774;23.354;2023-04-16T11:38:04;2.65;;;0.70;;
77597;SDS011;66756;42.774;23.354;2023-04-16T11:40:31;1.95;;;0.35;;
77597;SDS011;66756;42.774;23.354;2023-04-16T11:43:00;1.65;;;0.85;;
77597;SDS011;66756;42.774;23.354;2023-04-16T11:45:27;3.28;;;0.75;;
77597;SDS011;66756;42.774;23.354;2023-04-16T11:47:53;2.58;;;0.40;;
77597;SDS011;66756;42.774;23.354;2023-04-16T11:50:25;3.53;;;0.90;;
77597;SDS011;66756;42.774;23.354;2023-04-16T11:52:52;1.75;;;0.90;;
77597;SDS011;66756;42.774;23.354;2023-04-16T11:55:18;3.88;;;2.03;;
77597;SDS011;66756;42.774;23.354;2023-04-16T11:57:45;2.92;;;1.17;;
77597;SDS011;66756;42.774;23.354;2023-04-16T12:00:11;2.80;;;1.05;;
77597;SDS011;66756;42.774;23.354;2023-04-16T12:02:50;4.15;;;0.52;;
77597;SDS011;66756;42.774;23.354;2023-04-16T12:05:33;2.20;;;1.17;;
77597;SDS011;66756;42.774;23.354;2023-04-16T12:08:03;2.17;;;1.13;;
77597;SDS011;66756;42.774;23.354;2023-04-16T12:10:30;3.53;;;1.27;;
77597;SDS011;66756;42.774;23.354;2023-04-16T12:15:55;2.30;;;0.47;;
77597;SDS011;66756;42.774;23.354;2023-04-16T12:18:22;2.13;;;1.25;;
77597;SDS011;66756;42.774;23.354;2023-04-16T12:20:50;3.20;;;0.93;;
77597;SDS011;66756;42.774;23.354;2023-04-16T12:23:26;2.45;;;0.70;;
77597;SDS011;66756;42.774;23.354;2023-04-16T12:25:53;1.38;;;0.30;;
77597;SDS011;66756;42.774;23.354;2023-04-16T12:28:53;2.50;;;0.65;;
77597;SDS011;66756;42.774;23.354;2023-04-16T12:31:12;4.72;;;0.65;;
77597;SDS011;66756;42.774;23.354;2023-04-16T12:33:38;1.92;;;0.43;;
77597;SDS011;66756;42.774;23.354;2023-04-16T12:36:18;9.85;;;7.75;;
77597;SDS011;66756;42.774;23.354;2023-04-16T12:38:44;2.38;;;0.55;;
77597;SDS011;66756;42.774;23.354;2023-04-16T12:41:10;2.67;;;1.08;;
77597;SDS011;66756;42.774;23.354;2023-04-16T12:43:36;3.53;;;0.95;;
77597;SDS011;66756;42.774;23.354;2023-04-16T12:46:02;1.90;;;1.05;;
77597;SDS011;66756;42.774;23.354;2023-04-16T12:48:28;2.40;;;0.57;;
77597;SDS011;66756;42.774;23.354;2023-04-16T12:50:56;1.83;;;1.02;;
77597;SDS011;66756;42.774;23.354;2023-04-16T12:53:22;3.25;;;1.38;;
77597;SDS011;66756;42.774;23.354;2023-04-16T12:55:48;1.90;;;1.13;;
77597;SDS011;66756;42.774;23.354;2023-04-16T12:58:14;4.00;;;1.10;;
77597;SDS011;66756;42.774;23.354;2023-04-16T13:00:40;3.78;;;2.33;;
77597;SDS011;66756;42.774;23.354;2023-04-16T13:03:06;1.77;;;1.33;;
77597;SDS011;66756;42.774;23.354;2023-04-16T13:05:32;2.05;;;0.40;;
77597;SDS011;66756;42.774;23.354;2023-04-16T13:07:58;3.10;;;1.40;;
77597;SDS011;66756;42.774;23.354;2023-04-16T13:10:24;3.38;;;1.25;;
77597;SDS011;66756;42.774;23.354;2023-04-16T13:12:51;1.77;;;1.00;;
77597;SDS011;66756;42.774;23.354;2023-04-16T13:15:17;3.65;;;0.73;;
77597;SDS011;66756;42.774;23.354;2023-04-16T13:17:43;3.40;;;1.08;;
77597;SDS011;66756;42.774;23.354;2023-04-16T13:20:10;1.40;;;0.22;;
77597;SDS011;66756;42.774;23.354;2023-04-16T13:22:36;3.83;;;0.98;;
77597;SDS011;66756;42.774;23.354;2023-04-16T13:25:02;3.13;;;1.10;;
77597;SDS011;66756;42.774;23.354;2023-04-16T13:27:28;2.40;;;1.60;;
77597;SDS011;66756;42.774;23.354;2023-04-16T13:29:55;15.57;;;5.65;;
77597;SDS011;66756;42.774;23.354;2023-04-16T13:32:22;2.67;;;0.50;;
77597;SDS011;66756;42.774;23.354;2023-04-16T13:34:48;1.25;;;0.47;;
77597;SDS011;66756;42.774;23.354;2023-04-16T13:37:15;1.95;;;0.40;;
77597;SDS011;66756;42.774;23.354;2023-04-16T13:39:42;3.05;;;0.80;;
77597;SDS011;66756;42.774;23.354;2023-04-16T13:42:09;3.17;;;0.43;;
77597;SDS011;66756;42.774;23.354;2023-04-16T13:44:35;2.20;;;0.68;;
77597;SDS011;66756;42.774;23.354;2023-04-16T13:47:01;2.25;;;0.70;;
77597;SDS011;66756;42.774;23.354;2023-04-16T13:49:27;2.20;;;0.70;;
77597;SDS011;66756;42.774;23.354;2023-04-16T13:51:53;3.92;;;0.50;;
77597;SDS011;66756;42.774;23.354;2023-04-16T13:54:19;2.00;;;1.70;;
77597;SDS011;66756;42.774;23.354;2023-04-16T13:56:45;7.07;;;1.83;;
77597;SDS011;66756;42.774;23.354;2023-04-16T13:59:11;5.82;;;1.08;;
77597;SDS011;66756;42.774;23.354;2023-04-16T14:01:39;4.15;;;1.27;;
77597;SDS011;66756;42.774;23.354;2023-04-16T14:04:05;6.60;;;1.23;;
77597;SDS011;66756;42.774;23.354;2023-04-16T14:06:32;13.43;;;2.05;;
77597;SDS011;66756;42.774;23.354;2023-04-16T14:08:58;13.15;;;2.83;;
77597;SDS011;66756;42.774;23.354;2023-04-16T14:11:25;3.53;;;0.93;;
77597;SDS011;66756;42.774;23.354;2023-04-16T14:13:51;3.03;;;0.60;;
77597;SDS011;66756;42.774;23.354;2023-04-16T14:16:17;6.55;;;1.00;;
77597;SDS011;66756;42.774;23.354;2023-04-16T14:18:43;2.58;;;0.88;;
77597;SDS011;66756;42.774;23.354;2023-04-16T14:21:09;7.97;;;1.90;;
77597;SDS011;66756;42.774;23.354;2023-04-16T14:23:35;5.03;;;1.17;;
77597;SDS011;66756;42.774;23.354;2023-04-16T14:26:02;5.25;;;1.65;;
77597;SDS011;66756;42.774;23.354;2023-04-16T14:28:28;5.63;;;1.30;;
77597;SDS011;66756;42.774;23.354;2023-04-16T14:30:54;2.92;;;1.20;;
77597;SDS011;66756;42.774;23.354;2023-04-16T14:33:20;3.55;;;1.33;;